createdAt,value
2023-04-14T00:00:00.104Z, 4.7
2023-04-14T00:02:00.213Z, 4.7
2023-04-14T00:04:00.271Z, 4.7
2023-04-14T00:06:00.076Z, 4.9
2023-04-14T00:08:00.104Z, 4.8
2023-04-14T00:10:00.034Z, 4.6
2023-04-14T00:12:00.137Z, 4.3
2023-04-14T00:14:00.095Z, 4
2023-04-14T00:16:00.066Z, 3.7
2023-04-14T00:18:00.177Z, 3.6
2023-04-14T00:20:00.100Z, 3.6
2023-04-14T00:22:00.057Z, 3.8
2023-04-14T00:24:00.118Z, 3.9
2023-04-14T00:26:00.113Z, 3.7
2023-04-14T00:28:00.117Z, 3.7
2023-04-14T00:30:00.210Z, 3.7
2023-04-14T00:32:00.129Z, 3.7
2023-04-14T00:34:00.116Z, 3.7
2023-04-14T00:36:00.105Z, 3.8
2023-04-14T00:38:00.113Z, 4.1
2023-04-14T00:40:00.156Z, 4.2
2023-04-14T00:42:00.127Z, 4.2
2023-04-14T00:44:00.136Z, 4.3
2023-04-14T00:46:00.164Z, 4.1
2023-04-14T00:48:00.160Z, 3.8
2023-04-14T00:50:00.146Z, 3.8
2023-04-14T00:52:00.127Z, 3.5
2023-04-14T00:54:00.187Z, 3.4
2023-04-14T00:56:00.090Z, 3.3
2023-04-14T00:58:00.063Z, 3.4
2023-04-14T01:00:00.117Z, 3.5
2023-04-14T01:02:00.146Z, 3.5
2023-04-14T01:04:00.190Z, 2.9
2023-04-14T01:06:00.082Z, 1.7
2023-04-14T01:08:00.038Z, 1.7
2023-04-14T01:10:00.015Z, 2
2023-04-14T01:12:00.082Z, 2.1
2023-04-14T01:14:00.099Z, 2
2023-04-14T01:16:00.079Z, 2
2023-04-14T01:18:00.149Z, 2.1
2023-04-14T01:20:00.055Z, 2.2
2023-04-14T01:22:00.056Z, 2.2
2023-04-14T01:24:00.086Z, 2.1
2023-04-14T01:26:00.136Z, 2.1
2023-04-14T01:28:00.097Z, 2.3
2023-04-14T01:30:00.145Z, 2.4
2023-04-14T01:32:00.261Z, 2.5
2023-04-14T01:34:00.141Z, 2.5
2023-04-14T01:36:00.175Z, 2.5
2023-04-14T01:38:00.169Z, 2.5
2023-04-14T01:40:00.189Z, 2.1
2023-04-14T01:42:00.131Z, 1.9
2023-04-14T01:44:00.107Z, 2.1
2023-04-14T01:46:00.168Z, 2.3
2023-04-14T01:48:00.156Z, 2.1
2023-04-14T01:50:00.157Z, 1.9
2023-04-14T01:52:00.104Z, 1.9
2023-04-14T01:54:00.165Z, 2
2023-04-14T01:56:00.098Z, 2
2023-04-14T01:58:00.110Z, 2
2023-04-14T02:00:00.164Z, 2.1
2023-04-14T02:02:00.160Z, 2.2
2023-04-14T02:04:00.270Z, 2.3
2023-04-14T02:06:00.094Z, 2.3
2023-04-14T02:08:00.075Z, 2.4
2023-04-14T02:10:00.123Z, 2.4
2023-04-14T02:12:00.120Z, 2.4
2023-04-14T02:14:00.075Z, 2.5
2023-04-14T02:16:00.090Z, 2.7
2023-04-14T02:18:00.180Z, 2.7
2023-04-14T02:20:00.093Z, 2.7
2023-04-14T02:22:00.087Z, 2.7
2023-04-14T02:24:00.099Z, 2.6
2023-04-14T02:26:00.097Z, 2.5
2023-04-14T02:28:00.128Z, 2.5
2023-04-14T02:30:00.166Z, 2.5
2023-04-14T02:32:00.105Z, 2.1
2023-04-14T02:34:00.125Z, 1.5
2023-04-14T02:36:00.162Z, 1.5
2023-04-14T02:38:00.116Z, 1.9
2023-04-14T02:40:00.144Z, 2
2023-04-14T02:42:00.125Z, 2.1
2023-04-14T02:44:00.102Z, 2
2023-04-14T02:46:00.122Z, 2.1
2023-04-14T02:48:00.192Z, 2.1
2023-04-14T02:50:00.175Z, 2.2
2023-04-14T02:52:00.126Z, 2.3
2023-04-14T02:54:00.143Z, 2.3
2023-04-14T02:56:00.077Z, 2.2
2023-04-14T02:58:00.061Z, 2.3
2023-04-14T03:00:00.134Z, 2.2
2023-04-14T03:02:00.172Z, 2
2023-04-14T03:04:00.189Z, 2
2023-04-14T03:06:00.056Z, 1.9
2023-04-14T03:08:00.046Z, 2.3
2023-04-14T03:10:00.055Z, 2.4
2023-04-14T03:12:00.061Z, 2.5
2023-04-14T03:14:00.050Z, 2.5
2023-04-14T03:16:00.076Z, 2.6
2023-04-14T03:18:00.108Z, 2.6
2023-04-14T03:20:00.050Z, 2.6
2023-04-14T03:22:00.115Z, 2.6
2023-04-14T03:24:00.036Z, 2.6
2023-04-14T03:26:00.106Z, 2.6
2023-04-14T03:28:00.108Z, 2.4
2023-04-14T03:30:00.137Z, 2.6
2023-04-14T03:32:00.170Z, 2.7
2023-04-14T03:34:00.116Z, 2.8
2023-04-14T03:36:00.201Z, 2.5
2023-04-14T03:38:00.126Z, 2.3
2023-04-14T03:40:00.102Z, 2.3
2023-04-14T03:42:00.120Z, 2.6
2023-04-14T03:44:00.118Z, 2.6
2023-04-14T03:46:00.121Z, 2.5
2023-04-14T03:48:00.188Z, 2.4
2023-04-14T03:50:00.111Z, 2.3
2023-04-14T03:52:00.104Z, 2.3
2023-04-14T03:54:00.131Z, 2.3
2023-04-14T03:56:00.125Z, 2.3
2023-04-14T03:58:00.066Z, 2.4
2023-04-14T04:00:00.080Z, 2.1
2023-04-14T04:02:00.074Z, 1.9
2023-04-14T04:04:00.182Z, 1.6
2023-04-14T04:06:00.055Z, 1.4
2023-04-14T04:08:00.033Z, 1.3
2023-04-14T04:10:00.027Z, 1.2
2023-04-14T04:12:00.096Z, 1.2
2023-04-14T04:14:00.054Z, 1.2
2023-04-14T04:16:00.058Z, 1.3
2023-04-14T04:18:00.221Z, 1.3
2023-04-14T04:20:00.055Z, 1.3
2023-04-14T04:22:00.061Z, 1.4
2023-04-14T04:24:00.062Z, 1.2
2023-04-14T04:26:00.127Z, 1.2
2023-04-14T04:28:00.094Z, 1.4
2023-04-14T04:30:00.124Z, 1.6
2023-04-14T04:32:00.141Z, 1.7
2023-04-14T04:34:00.112Z, 1.8
2023-04-14T04:36:00.140Z, 1.7
2023-04-14T04:38:00.106Z, 1.7
2023-04-14T04:40:00.141Z, 1.6
2023-04-14T04:42:00.104Z, 1.7
2023-04-14T04:44:00.112Z, 1.8
2023-04-14T04:46:00.151Z, 1.9
2023-04-14T04:48:00.173Z, 1.9
2023-04-14T04:50:00.184Z, 1.9
2023-04-14T04:52:00.101Z, 1.9
2023-04-14T04:54:00.128Z, 2
2023-04-14T04:56:00.090Z, 2.1
2023-04-14T04:58:00.059Z, 2.1
2023-04-14T05:00:00.079Z, 2.1
2023-04-14T05:02:00.125Z, 2.1
2023-04-14T05:04:00.108Z, 1.9
2023-04-14T05:06:00.059Z, 1.6
2023-04-14T05:08:00.029Z, 1.5
2023-04-14T05:10:00.053Z, 1.6
2023-04-14T05:12:00.060Z, 1.8
2023-04-14T05:14:00.058Z, 2.2
2023-04-14T05:16:00.097Z, 2.4
2023-04-14T05:18:00.208Z, 2.4
2023-04-14T05:20:00.034Z, 2.7
2023-04-14T05:22:00.024Z, 3
2023-04-14T05:24:00.039Z, 3.2
2023-04-14T05:26:16.401Z, 3.2
2023-04-14T05:28:00.117Z, 3.2
2023-04-14T05:30:00.146Z, 3.3
2023-04-14T05:32:00.157Z, 3.4
2023-04-14T05:34:00.425Z, 3.8
2023-04-14T05:36:00.130Z, 3.9
2023-04-14T05:38:00.125Z, 4.2
2023-04-14T05:40:00.116Z, 4.4
2023-04-14T05:42:00.149Z, 4.5
2023-04-14T05:44:00.647Z, 4.1
2023-04-14T05:46:00.120Z, 3.6
2023-04-14T05:48:00.240Z, 3.7
2023-04-14T05:50:00.121Z, 3.8
2023-04-14T05:52:00.132Z, 4
2023-04-14T05:54:00.490Z, 4.2
2023-04-14T05:56:00.073Z, 4.4
2023-04-14T05:58:00.063Z, 4.6
2023-04-14T06:00:00.109Z, 5.1
2023-04-14T06:02:00.150Z, 5.6
2023-04-14T06:04:00.910Z, 6
2023-04-14T06:06:00.063Z, 6.1
2023-04-14T06:08:00.060Z, 6.1
2023-04-14T06:10:00.041Z, 5.7
2023-04-14T06:12:00.069Z, 5.6
2023-04-14T06:14:00.200Z, 5.6
2023-04-14T06:16:00.131Z, 5.1
2023-04-14T06:18:00.096Z, 4.4
2023-04-14T06:20:00.062Z, 4.4
2023-04-14T06:22:00.066Z, 4.6
2023-04-14T06:24:00.086Z, 4.8
2023-04-14T06:26:00.085Z, 4.9
2023-04-14T06:28:00.123Z, 4.9
2023-04-14T06:30:00.109Z, 5.1
2023-04-14T06:32:00.145Z, 5.4
2023-04-14T06:34:00.113Z, 5.8
2023-04-14T06:36:00.110Z, 6.1
2023-04-14T06:38:00.126Z, 6.5
2023-04-14T06:40:00.143Z, 6.8
2023-04-14T06:42:00.120Z, 6.9
2023-04-14T06:44:00.105Z, 6.9
2023-04-14T06:46:00.159Z, 6.8
2023-04-14T06:48:00.158Z, 6.8
2023-04-14T06:50:00.140Z, 6.5
2023-04-14T06:52:00.161Z, 6.9
2023-04-14T06:54:00.487Z, 7.3
2023-04-14T06:56:00.073Z, 7.7
2023-04-14T06:58:00.067Z, 7.9
2023-04-14T07:00:00.080Z, 7.8
2023-04-14T07:02:00.154Z, 8.2
2023-04-14T07:04:00.239Z, 8.7
2023-04-14T07:06:00.067Z, 9.1
2023-04-14T07:08:00.063Z, 9.2
2023-04-14T07:10:00.056Z, 9.2
2023-04-14T07:12:00.079Z, 9.3
2023-04-14T07:14:00.359Z, 9.4
2023-04-14T07:16:00.119Z, 9.3
2023-04-14T07:18:00.269Z, 8.9
2023-04-14T07:20:00.039Z, 8.7
2023-04-14T07:22:00.042Z, 8.5
2023-04-14T07:24:00.337Z, 8.3
2023-04-14T07:26:00.123Z, 8.3
2023-04-14T07:28:03.555Z, 8
2023-04-14T07:30:00.172Z, 7.7
2023-04-14T07:32:00.130Z, 7.6
2023-04-14T07:34:00.349Z, 7.9
2023-04-14T07:36:03.441Z, 8.3
2023-04-14T07:38:00.108Z, 8.4
2023-04-14T07:40:00.099Z, 8.3
2023-04-14T07:42:00.164Z, 8.4
2023-04-14T07:44:00.462Z, 8.6
2023-04-14T07:46:00.266Z, 8.3
2023-04-14T07:48:00.136Z, 8.2
2023-04-14T07:50:00.108Z, 8.2
2023-04-14T07:52:00.103Z, 8.5
2023-04-14T07:54:00.354Z, 8.2
2023-04-14T07:56:00.094Z, 8.1
2023-04-14T07:58:00.068Z, 8.2
2023-04-14T08:00:00.071Z, 8.8
2023-04-14T08:02:00.163Z, 9.3
2023-04-14T08:04:00.219Z, 9.2
2023-04-14T08:06:00.062Z, 9.1
2023-04-14T08:08:00.048Z, 8.9
2023-04-14T08:10:00.048Z, 8.7
2023-04-14T08:12:00.049Z, 8.7
2023-04-14T08:14:00.039Z, 8.9
2023-04-14T08:16:00.048Z, 8.6
2023-04-14T08:18:00.140Z, 8.6
2023-04-14T08:20:00.032Z, 8.6
2023-04-14T08:22:00.037Z, 8.5
2023-04-14T08:24:00.037Z, 8.9
2023-04-14T08:26:00.114Z, 9.5
2023-04-14T08:28:00.120Z, 9.7
2023-04-14T08:30:00.135Z, 9.9
2023-04-14T08:32:00.198Z, 10
2023-04-14T08:34:00.119Z, 9.9
2023-04-14T08:36:00.792Z, 9.9
2023-04-14T08:38:00.098Z, 10.1
2023-04-14T08:40:00.181Z, 10.1
2023-04-14T08:42:00.121Z, 10.8
2023-04-14T08:44:00.115Z, 10.7
2023-04-14T08:46:00.163Z, 10.4
2023-04-14T08:48:00.182Z, 10.9
2023-04-14T08:50:00.163Z, 11.4
2023-04-14T08:52:00.121Z, 11.4
2023-04-14T08:54:00.404Z, 10.7
2023-04-14T08:56:00.092Z, 10.6
2023-04-14T08:58:00.052Z, 10.9
2023-04-14T09:00:00.103Z, 10.8
2023-04-14T09:02:00.182Z, 10.9
2023-04-14T09:04:00.798Z, 11.1
2023-04-14T09:06:00.061Z, 11.5
2023-04-14T09:08:00.045Z, 11.8
2023-04-14T09:10:00.028Z, 12.1
2023-04-14T09:12:00.044Z, 11.7
2023-04-14T09:14:00.362Z, 11.1
2023-04-14T09:16:00.096Z, 11.6
2023-04-14T09:18:00.066Z, 11.8
2023-04-14T09:20:36.436Z, 11.4
2023-04-14T09:22:00.023Z, 12
2023-04-14T09:24:00.173Z, 12.2
2023-04-14T09:26:00.103Z, 12.3
2023-04-14T09:28:00.118Z, 12.1
2023-04-14T09:30:00.138Z, 12.1
2023-04-14T09:32:00.154Z, 11.9
2023-04-14T09:34:00.428Z, 11.9
2023-04-14T09:36:00.131Z, 12
2023-04-14T09:38:00.110Z, 12.2
2023-04-14T09:40:00.131Z, 12
2023-04-14T09:42:00.173Z, 12
2023-04-14T09:44:00.526Z, 12
2023-04-14T09:46:00.171Z, 11.5
2023-04-14T09:48:00.176Z, 11.1
2023-04-14T09:50:00.147Z, 10.9
2023-04-14T09:52:00.108Z, 11.9
2023-04-14T09:54:00.655Z, 12.7
2023-04-14T09:56:00.140Z, 13.2
2023-04-14T09:58:00.058Z, 12.2
2023-04-14T10:00:00.079Z, 11.9
2023-04-14T10:02:00.145Z, 12.4
2023-04-14T10:04:00.055Z, 12.6
2023-04-14T10:06:00.086Z, 13
2023-04-14T10:08:00.039Z, 13.4
2023-04-14T10:10:00.028Z, 13.6
2023-04-14T10:12:00.054Z, 12.8
2023-04-14T10:14:00.058Z, 12.8
2023-04-14T10:16:00.089Z, 12.8
2023-04-14T10:18:00.091Z, 12.8
2023-04-14T10:20:00.064Z, 12.8
2023-04-14T10:22:00.052Z, 12.8
2023-04-14T10:24:00.070Z, 12.8
2023-04-14T10:26:00.094Z, 12.8
2023-04-14T10:28:00.088Z, 12.8
2023-04-14T10:30:00.095Z, 12.8
2023-04-14T10:32:00.301Z, 13.1
2023-04-14T10:34:00.132Z, 13
2023-04-14T10:36:00.108Z, 13.1
2023-04-14T10:38:00.107Z, 13.3
2023-04-14T10:40:00.111Z, 13.6
2023-04-14T10:42:00.103Z, 13.2
2023-04-14T10:44:00.095Z, 12.2
2023-04-14T10:46:00.098Z, 12.8
2023-04-14T10:48:00.174Z, 14
2023-04-14T10:50:00.173Z, 14.5
2023-04-14T10:52:00.110Z, 14.2
2023-04-14T10:54:00.157Z, 13.4
2023-04-14T10:56:00.067Z, 13
2023-04-14T10:58:00.060Z, 13.4
2023-04-14T11:00:00.098Z, 14.1
2023-04-14T11:02:00.183Z, 14.9
2023-04-14T11:04:00.143Z, 14.9
2023-04-14T11:06:00.065Z, 14.9
2023-04-14T11:08:02.731Z, 15.3
2023-04-14T11:10:00.046Z, 15.5
2023-04-14T11:12:00.052Z, 15.6
2023-04-14T11:14:00.045Z, 15.6
2023-04-14T11:16:00.046Z, 15.5
2023-04-14T11:18:00.053Z, 14.6
2023-04-14T11:20:00.052Z, 13.4
2023-04-14T11:22:00.034Z, 13.1
2023-04-14T11:24:00.043Z, 13
2023-04-14T11:26:00.125Z, 12.7
2023-04-14T11:28:00.119Z, 12.6
2023-04-14T11:30:00.138Z, 12.6
2023-04-14T11:32:00.229Z, 12.6
2023-04-14T11:34:00.105Z, 12.6
2023-04-14T11:36:00.103Z, 14.1
2023-04-14T11:38:00.118Z, 14.6
2023-04-14T11:40:00.110Z, 14.9
2023-04-14T11:42:00.224Z, 14.8
2023-04-14T11:44:00.111Z, 14.8
2023-04-14T11:46:00.120Z, 14.6
2023-04-14T11:48:00.149Z, 13.7
2023-04-14T11:50:00.122Z, 13.1
2023-04-14T11:52:00.111Z, 12.8
2023-04-14T11:54:00.142Z, 13
2023-04-14T11:56:00.124Z, 13.3
2023-04-14T11:58:00.055Z, 13.5
2023-04-14T12:00:00.097Z, 13.7
2023-04-14T12:02:00.089Z, 13.8
2023-04-14T12:04:00.211Z, 13.9
2023-04-14T12:06:00.851Z, 13.9
2023-04-14T12:08:00.058Z, 13.6
2023-04-14T12:10:00.074Z, 13.5
2023-04-14T12:12:00.084Z, 13.6
2023-04-14T12:14:00.049Z, 13.8
2023-04-14T12:16:00.092Z, 13.8
2023-04-14T12:18:00.133Z, 13.7
2023-04-14T12:20:00.048Z, 13.6
2023-04-14T12:22:00.107Z, 13.3
2023-04-14T12:24:00.035Z, 13
2023-04-14T12:26:00.095Z, 13.1
2023-04-14T12:28:00.129Z, 13.1
2023-04-14T12:30:00.136Z, 12.9
2023-04-14T12:32:00.354Z, 12.6
2023-04-14T12:34:00.125Z, 12.7
2023-04-14T12:36:00.125Z, 12.6
2023-04-14T12:38:00.103Z, 12.6
2023-04-14T12:40:00.096Z, 13
2023-04-14T12:42:00.118Z, 13.2
2023-04-14T12:44:00.139Z, 13.3
2023-04-14T12:46:00.118Z, 13.4
2023-04-14T12:48:00.175Z, 13.3
2023-04-14T12:50:00.119Z, 13.8
2023-04-14T12:52:00.127Z, 14.4
2023-04-14T12:54:00.117Z, 14.7
2023-04-14T12:56:00.083Z, 14.8
2023-04-14T12:58:00.054Z, 14.5
2023-04-14T13:00:00.088Z, 14.4
2023-04-14T13:02:00.137Z, 14.4
2023-04-14T13:04:00.222Z, 13.8
2023-04-14T13:06:00.049Z, 13.6
2023-04-14T13:08:00.033Z, 13.5
2023-04-14T13:10:00.030Z, 14.1
2023-04-14T13:12:00.058Z, 14.2
2023-04-14T13:14:00.044Z, 14.2
2023-04-14T13:16:13.906Z, 14.5
2023-04-14T13:18:00.101Z, 13.9
2023-04-14T13:20:00.035Z, 13
2023-04-14T13:22:00.027Z, 12.8
2023-04-14T13:24:00.042Z, 13.1
2023-04-14T13:26:00.137Z, 13.1
2023-04-14T13:28:00.122Z, 13.4
2023-04-14T13:30:00.141Z, 13.4
2023-04-14T13:32:00.186Z, 13.2
2023-04-14T13:34:00.114Z, 12.8
2023-04-14T13:36:00.124Z, 12.7
2023-04-14T13:38:00.103Z, 12.7
2023-04-14T13:40:00.098Z, 12.8
2023-04-14T13:42:00.193Z, 12.9
2023-04-14T13:44:00.110Z, 13.1
2023-04-14T13:46:00.139Z, 13.2
2023-04-14T13:48:00.213Z, 13.2
2023-04-14T13:50:00.114Z, 13
2023-04-14T13:52:00.115Z, 13.2
2023-04-14T13:54:00.123Z, 13.4
2023-04-14T13:56:00.095Z, 13.6
2023-04-14T13:58:00.086Z, 13.6
2023-04-14T14:00:00.168Z, 13.2
2023-04-14T14:02:00.265Z, 13.4
2023-04-14T14:04:00.208Z, 13.5
2023-04-14T14:06:00.107Z, 13.7
2023-04-14T14:08:00.050Z, 13.5
2023-04-14T14:10:00.060Z, 14.3
2023-04-14T14:12:00.067Z, 14.1
2023-04-14T14:14:00.642Z, 14.1
2023-04-14T14:16:00.091Z, 14.1
2023-04-14T14:18:00.112Z, 14.4
2023-04-14T14:20:00.048Z, 14.7
2023-04-14T14:22:00.019Z, 14.7
2023-04-14T14:24:00.360Z, 14.1
2023-04-14T14:26:00.130Z, 14
2023-04-14T14:28:00.109Z, 14.3
2023-04-14T14:30:00.140Z, 14.4
2023-04-14T14:32:00.131Z, 14.6
2023-04-14T14:34:00.592Z, 14.5
2023-04-14T14:36:00.149Z, 14.4
2023-04-14T14:38:00.941Z, 14.3
2023-04-14T14:40:00.171Z, 14.5
2023-04-14T14:42:00.166Z, 15.4
2023-04-14T14:44:01.535Z, 15.9
2023-04-14T14:46:00.132Z, 16.2
2023-04-14T14:48:00.203Z, 16.5
2023-04-14T14:50:01.473Z, 16.5
2023-04-14T14:52:00.106Z, 16.1
2023-04-14T14:54:08.807Z, 16.2
2023-04-14T14:56:00.051Z, 16.4
2023-04-14T14:58:00.112Z, 16.8
2023-04-14T15:00:00.073Z, 16.6
2023-04-14T15:02:00.180Z, 15.9
2023-04-14T15:04:00.508Z, 15.7
2023-04-14T15:06:00.018Z, 16.3
2023-04-14T15:07:59.989Z, 16.2
2023-04-14T15:10:00.009Z, 16.1
2023-04-14T15:12:00.031Z, 16.5
2023-04-14T15:14:00.293Z, 17
2023-04-14T15:16:00.076Z, 16.9
2023-04-14T15:18:00.137Z, 16.8
2023-04-14T15:20:00.047Z, 16.4
2023-04-14T15:22:00.057Z, 15.8
2023-04-14T15:24:00.467Z, 15.5
2023-04-14T15:26:00.160Z, 15.7
2023-04-14T15:28:00.106Z, 15.7
2023-04-14T15:30:00.148Z, 15.7
2023-04-14T15:32:00.171Z, 15.9
2023-04-14T15:34:00.532Z, 16.1
2023-04-14T15:36:00.175Z, 16.2
2023-04-14T15:38:00.130Z, 16.2
2023-04-14T15:40:00.159Z, 16.8
2023-04-14T15:42:00.188Z, 16.6
2023-04-14T15:44:00.393Z, 16.6
2023-04-14T15:46:00.177Z, 16.6
2023-04-14T15:48:00.221Z, 16.6
2023-04-14T15:50:08.824Z, 16.6
2023-04-14T15:52:00.123Z, 16.6
2023-04-14T15:54:00.408Z, 16.6
2023-04-14T15:56:00.165Z, 16.6
2023-04-14T15:58:00.100Z, 16.5
2023-04-14T16:00:00.110Z, 16.5
2023-04-14T16:02:00.101Z, 17.2
2023-04-14T16:04:00.370Z, 17.2
2023-04-14T16:06:00.074Z, 16.6
2023-04-14T16:08:00.071Z, 16.6
2023-04-14T16:10:00.050Z, 15.3
2023-04-14T16:12:00.079Z, 15.2
2023-04-14T16:14:00.271Z, 15.2
2023-04-14T16:16:00.130Z, 15.2
2023-04-14T16:18:00.126Z, 15.4
2023-04-14T16:20:00.068Z, 15.3
2023-04-14T16:22:00.066Z, 15
2023-04-14T16:24:00.281Z, 15
2023-04-14T16:26:00.147Z, 14.6
2023-04-14T16:28:00.142Z, 14.5
2023-04-14T16:30:00.141Z, 14.7
2023-04-14T16:32:00.167Z, 14.7
2023-04-14T16:34:00.467Z, 14.7
2023-04-14T16:36:00.133Z, 14.6
2023-04-14T16:38:00.146Z, 14.6
2023-04-14T16:40:00.224Z, 14.6
2023-04-14T16:42:00.188Z, 14.6
2023-04-14T16:44:00.578Z, 14.6
2023-04-14T16:46:00.213Z, 14.6
2023-04-14T16:48:00.249Z, 14.6
2023-04-14T16:50:00.256Z, 14.8
2023-04-14T16:52:00.147Z, 14.8
2023-04-14T16:54:00.488Z, 14.8
2023-04-14T16:56:00.098Z, 14.6
2023-04-14T16:58:00.106Z, 14.9
2023-04-14T17:00:00.084Z, 14.9
2023-04-14T17:02:00.214Z, 14.8
2023-04-14T17:04:00.450Z, 14.7
2023-04-14T17:06:00.063Z, 15
2023-04-14T17:08:00.050Z, 15.4
2023-04-14T17:10:00.044Z, 15.6
2023-04-14T17:12:00.076Z, 15.9
2023-04-14T17:14:00.318Z, 16
2023-04-14T17:16:08.335Z, 16
2023-04-14T17:18:00.083Z, 15.9
2023-04-14T17:20:00.086Z, 15.6
2023-04-14T17:22:00.035Z, 15.6
2023-04-14T17:24:00.195Z, 15.5
2023-04-14T17:26:00.096Z, 14.9
2023-04-14T17:28:00.111Z, 14.4
2023-04-14T17:30:00.126Z, 14.3
2023-04-14T17:32:00.132Z, 14.3
2023-04-14T17:34:00.627Z, 14.4
2023-04-14T17:36:00.105Z, 14.1
2023-04-14T17:38:00.095Z, 13.7
2023-04-14T17:40:00.103Z, 13.3
2023-04-14T17:42:00.149Z, 13.3
2023-04-14T17:44:00.630Z, 13.1
2023-04-14T17:46:00.165Z, 13.1
2023-04-14T17:48:00.167Z, 13.1
2023-04-14T17:50:00.132Z, 13.1
2023-04-14T17:52:00.144Z, 12.6
2023-04-14T17:54:00.545Z, 12.6
2023-04-14T17:56:00.093Z, 12.6
2023-04-14T17:58:00.076Z, 12
2023-04-14T18:00:00.067Z, 12
2023-04-14T18:02:00.066Z, 12
2023-04-14T18:04:00.273Z, 12
2023-04-14T18:06:00.064Z, 11.1
2023-04-14T18:08:00.057Z, 10.7
2023-04-14T18:10:00.027Z, 10.5
2023-04-14T18:12:00.128Z, 10.5
2023-04-14T18:14:00.366Z, 10.5
2023-04-14T18:16:00.054Z, 9.8
2023-04-14T18:18:00.142Z, 9.6
2023-04-14T18:20:00.053Z, 9.4
2023-04-14T18:22:00.097Z, 9.3
2023-04-14T18:30:00.135Z, 8.9
2023-04-14T18:32:00.082Z, 8.9
2023-04-14T18:34:00.324Z, 8.9
2023-04-14T18:36:00.148Z, 8.2
2023-04-14T18:38:00.115Z, 8.2
2023-04-14T18:40:00.114Z, 8.1
2023-04-14T18:42:00.114Z, 8.1
2023-04-14T18:44:00.092Z, 8.1
2023-04-14T18:46:00.164Z, 8
2023-04-14T18:48:00.149Z, 7.9
2023-04-14T18:50:00.126Z, 7.7
2023-04-14T18:52:00.105Z, 7.6
2023-04-14T18:54:00.606Z, 7.6
2023-04-14T18:56:00.092Z, 7.5
2023-04-14T18:58:00.068Z, 7.5
2023-04-14T19:00:00.161Z, 7.4
2023-04-14T19:02:00.166Z, 7.3
2023-04-14T19:04:00.321Z, 7.3
2023-04-14T19:06:00.112Z, 7.3
2023-04-14T19:08:00.055Z, 7.3
2023-04-14T19:10:00.053Z, 7.4
2023-04-14T19:12:00.081Z, 7.3
2023-04-14T19:14:00.068Z, 7.3
2023-04-14T19:16:00.168Z, 7.3
2023-04-14T19:18:00.178Z, 7.3
2023-04-14T19:20:00.145Z, 7.3
2023-04-14T19:22:00.070Z, 7.3
2023-04-14T19:24:00.101Z, 7.5
2023-04-14T19:26:00.134Z, 7.8
2023-04-14T19:28:00.124Z, 7.9
2023-04-14T19:30:00.133Z, 7.7
2023-04-14T19:32:00.205Z, 7.4
2023-04-14T19:34:00.115Z, 7.3
2023-04-14T19:36:00.155Z, 7.3
2023-04-14T19:38:00.109Z, 7.5
2023-04-14T19:40:00.097Z, 7.5
2023-04-14T19:42:00.119Z, 7.3
2023-04-14T19:44:00.111Z, 7.1
2023-04-14T19:46:00.130Z, 7
2023-04-14T19:48:05.237Z, 7
2023-04-14T19:50:00.161Z, 7
2023-04-14T19:52:00.160Z, 7
2023-04-14T19:54:00.144Z, 7.1
2023-04-14T19:56:00.099Z, 7.2
2023-04-14T19:58:00.093Z, 7.1
2023-04-14T20:00:00.158Z, 6.9
2023-04-14T20:02:00.077Z, 6.7
2023-04-14T20:04:04.431Z, 6.6
2023-04-14T20:06:00.108Z, 6.6
2023-04-14T20:08:00.077Z, 6.6
2023-04-14T20:10:00.066Z, 6.5
2023-04-14T20:12:00.072Z, 6.4
2023-04-14T20:14:00.093Z, 6.2
2023-04-14T20:16:00.070Z, 6.1
2023-04-14T20:18:00.145Z, 6.1
2023-04-14T20:20:00.069Z, 6.1
2023-04-14T20:22:00.154Z, 6.1
2023-04-14T20:24:00.205Z, 6.1
2023-04-14T20:26:00.114Z, 6.1
2023-04-14T20:28:00.113Z, 6.2
2023-04-14T20:30:00.141Z, 6.3
2023-04-14T20:32:00.164Z, 6.4
2023-04-14T20:34:00.121Z, 6.4
2023-04-14T20:36:00.153Z, 6.5
2023-04-14T20:38:00.157Z, 6.5
2023-04-14T20:40:00.198Z, 6.2
2023-04-14T20:42:00.142Z, 5.8
2023-04-14T20:44:00.114Z, 5.6
2023-04-14T20:46:00.180Z, 5.5
2023-04-14T20:48:00.194Z, 5.6
2023-04-14T20:50:00.210Z, 5.7
2023-04-14T20:52:00.126Z, 5.8
2023-04-14T20:54:00.159Z, 5.8
2023-04-14T20:56:00.126Z, 5.6
2023-04-14T20:58:00.097Z, 5.5
2023-04-14T21:00:00.246Z, 5.5
2023-04-14T21:02:00.239Z, 5.6
2023-04-14T21:04:00.203Z, 5.6
2023-04-14T21:06:00.104Z, 5.7
2023-04-14T21:08:00.071Z, 5.6
2023-04-14T21:10:00.070Z, 5.4
2023-04-14T21:12:15.303Z, 5.3
2023-04-14T21:15:26.975Z, 5.2
2023-04-14T21:16:00.132Z, 5
2023-04-14T21:18:00.166Z, 4.9
2023-04-14T21:20:00.141Z, 5
2023-04-14T21:22:00.153Z, 5
2023-04-14T21:24:00.082Z, 5.2
2023-04-14T21:26:00.136Z, 5.3
2023-04-14T21:28:00.114Z, 5.4
2023-04-14T21:30:00.237Z, 5.4
2023-04-14T21:32:00.222Z, 5.4
2023-04-14T21:34:00.117Z, 5.3
2023-04-14T21:36:00.152Z, 5.2
2023-04-14T21:38:00.155Z, 5.2
2023-04-14T21:40:00.155Z, 5.1
2023-04-14T21:42:00.167Z, 5
2023-04-14T21:44:00.147Z, 5
2023-04-14T21:46:00.211Z, 5
2023-04-14T21:48:00.308Z, 4.8
2023-04-14T21:50:00.124Z, 4.6
2023-04-14T21:52:00.115Z, 4.5
2023-04-14T21:54:00.161Z, 4.4
2023-04-14T21:56:10.078Z, 4.3
2023-04-14T21:58:00.078Z, 4.4
2023-04-14T22:00:00.126Z, 4.5
2023-04-14T22:02:00.163Z, 4.3
2023-04-14T22:04:00.166Z, 4.3
2023-04-14T22:06:00.112Z, 4.3
2023-04-14T22:08:00.082Z, 4.1
2023-04-14T22:10:00.123Z, 4.1
2023-04-14T22:12:00.235Z, 4
2023-04-14T22:14:00.105Z, 3.9
2023-04-14T22:16:00.084Z, 3.9
2023-04-14T22:18:00.184Z, 3.8
2023-04-14T22:20:00.066Z, 3.8
2023-04-14T22:22:00.091Z, 3.7
2023-04-14T22:24:00.169Z, 3.6
2023-04-14T22:26:00.106Z, 3.6
2023-04-14T22:28:00.145Z, 3.6
2023-04-14T22:30:00.243Z, 3.4
2023-04-14T22:32:00.122Z, 3.3
2023-04-14T22:34:00.119Z, 3.3
2023-04-14T22:36:00.178Z, 3.3
2023-04-14T22:38:00.130Z, 3.3
2023-04-14T22:40:00.153Z, 3.4
2023-04-14T22:42:00.161Z, 3.6
2023-04-14T22:44:00.139Z, 3.8
2023-04-14T22:46:00.133Z, 3.9
2023-04-14T22:48:00.207Z, 3.9
2023-04-14T22:50:00.165Z, 3.9
2023-04-14T22:52:00.130Z, 4
2023-04-14T22:54:00.168Z, 3.8
2023-04-14T22:56:00.133Z, 3.7
2023-04-14T22:58:00.065Z, 3.7
2023-04-14T23:00:00.172Z, 3.7
2023-04-14T23:02:00.093Z, 3.8
2023-04-14T23:04:00.171Z, 3.7
2023-04-14T23:06:00.080Z, 3.7
2023-04-14T23:08:00.047Z, 3.8
2023-04-14T23:10:00.055Z, 3.7
2023-04-14T23:12:00.081Z, 3.5
2023-04-14T23:14:00.040Z, 3.3
2023-04-14T23:16:00.098Z, 3.3
2023-04-14T23:18:00.123Z, 3.3
2023-04-14T23:20:00.049Z, 3.3
2023-04-14T23:22:00.046Z, 3.4
2023-04-14T23:24:00.040Z, 3.5
2023-04-14T23:26:00.100Z, 3.4
2023-04-14T23:28:00.121Z, 3.1
2023-04-14T23:30:00.153Z, 3.2
2023-04-14T23:32:00.158Z, 3.2
2023-04-14T23:34:00.108Z, 2.9
2023-04-14T23:36:00.142Z, 2.8
2023-04-14T23:38:00.112Z, 2.9
2023-04-14T23:40:00.157Z, 3.1
2023-04-14T23:42:00.206Z, 3
2023-04-14T23:44:00.124Z, 3
2023-04-14T23:46:00.135Z, 3
2023-04-14T23:48:00.189Z, 3
2023-04-14T23:50:00.142Z, 3.2
2023-04-14T23:52:00.106Z, 3
2023-04-14T23:54:00.146Z, 2.7
2023-04-14T23:56:00.063Z, 2.5
